sensor_id;sensor_type;location;lat;lon;timestamp;temperature;humidity
9385;DHT22;4732;49.340;10.886;2023-04-06T10:17:43;10.70;92.40
9385;DHT22;4732;49.340;10.886;2023-04-06T10:21:24;10.90;91.60
9385;DHT22;4732;49.340;10.886;2023-04-06T10:33:20;11.40;88.10
9385;DHT22;4732;49.340;10.886;2023-04-06T10:35:51;11.50;87.80
9385;DHT22;4732;49.340;10.886;2023-04-06T10:38:19;11.60;90.10
9385;DHT22;4732;49.340;10.886;2023-04-06T10:40:47;11.70;90.00
9385;DHT22;4732;49.340;10.886;2023-04-06T10:43:19;11.50;89.20
9385;DHT22;4732;49.340;10.886;2023-04-06T10:45:44;11.50;86.50
9385;DHT22;4732;49.340;10.886;2023-04-06T10:48:18;11.40;85.40
9385;DHT22;4732;49.340;10.886;2023-04-06T10:50:47;11.60;90.80
9385;DHT22;4732;49.340;10.886;2023-04-06T10:53:24;12.80;90.70
9385;DHT22;4732;49.340;10.886;2023-04-06T10:55:51;11.90;91.20
9385;DHT22;4732;49.340;10.886;2023-04-06T10:58:17;11.90;91.60
9385;DHT22;4732;49.340;10.886;2023-04-06T11:00:49;11.80;90.10
9385;DHT22;4732;49.340;10.886;2023-04-06T11:03:16;11.90;87.00
9385;DHT22;4732;49.340;10.886;2023-04-06T11:05:45;12.10;91.30
9385;DHT22;4732;49.340;10.886;2023-04-06T11:08:29;12.30;91.00
9385;DHT22;4732;49.340;10.886;2023-04-06T11:11:07;12.60;88.80
9385;DHT22;4732;49.340;10.886;2023-04-06T11:13:41;12.80;84.90
9385;DHT22;4732;49.340;10.886;2023-04-06T11:16:11;12.60;86.60
9385;DHT22;4732;49.340;10.886;2023-04-06T11:18:37;12.70;79.50
9385;DHT22;4732;49.340;10.886;2023-04-06T11:21:03;12.80;83.90
9385;DHT22;4732;49.340;10.886;2023-04-06T11:23:28;13.10;84.60
9385;DHT22;4732;49.340;10.886;2023-04-06T11:25:54;12.80;85.50
9385;DHT22;4732;49.340;10.886;2023-04-06T11:28:20;12.70;88.10
9385;DHT22;4732;49.340;10.886;2023-04-06T11:30:46;12.50;90.30
9385;DHT22;4732;49.340;10.886;2023-04-06T11:33:20;12.50;93.20
9385;DHT22;4732;49.340;10.886;2023-04-06T11:35:46;12.60;94.90
9385;DHT22;4732;49.340;10.886;2023-04-06T11:43:04;13.10;98.80
9385;DHT22;4732;49.340;10.886;2023-04-06T11:45:42;12.90;97.70
9385;DHT22;4732;49.340;10.886;2023-04-06T11:53:14;13.50;98.80
9385;DHT22;4732;49.340;10.886;2023-04-06T11:55:39;13.20;97.40
9385;DHT22;4732;49.340;10.886;2023-04-06T11:58:06;12.80;97.70
9385;DHT22;4732;49.340;10.886;2023-04-06T12:00:32;12.70;99.10
9385;DHT22;4732;49.340;10.886;2023-04-06T12:03:00;12.50;99.80
9385;DHT22;4732;49.340;10.886;2023-04-06T12:05:26;12.60;99.10
9385;DHT22;4732;49.340;10.886;2023-04-06T12:07:52;13.40;99.90
9385;DHT22;4732;49.340;10.886;2023-04-06T12:15:10;13.90;97.40
9385;DHT22;4732;49.340;10.886;2023-04-06T12:17:35;13.80;96.40
9385;DHT22;4732;49.340;10.886;2023-04-06T12:47:05;14.40;78.00
9385;DHT22;4732;49.340;10.886;2023-04-06T12:49:32;14.60;83.30
9385;DHT22;4732;49.340;10.886;2023-04-06T12:51:58;14.80;81.90
9385;DHT22;4732;49.340;10.886;2023-04-06T12:54:23;15.20;80.80
9385;DHT22;4732;49.340;10.886;2023-04-06T12:56:50;15.20;74.10
9385;DHT22;4732;49.340;10.886;2023-04-06T12:59:16;15.00;73.70
9385;DHT22;4732;49.340;10.886;2023-04-06T13:01:41;15.00;70.50
9385;DHT22;4732;49.340;10.886;2023-04-06T13:04:07;14.90;71.90
9385;DHT22;4732;49.340;10.886;2023-04-06T13:06:32;15.30;77.70
9385;DHT22;4732;49.340;10.886;2023-04-06T13:08:58;14.90;66.40
9385;DHT22;4732;49.340;10.886;2023-04-06T13:11:25;14.90;68.40
9385;DHT22;4732;49.340;10.886;2023-04-06T13:13:51;14.40;70.20
9385;DHT22;4732;49.340;10.886;2023-04-06T13:16:18;14.70;66.60
9385;DHT22;4732;49.340;10.886;2023-04-06T13:18:43;14.70;69.80
9385;DHT22;4732;49.340;10.886;2023-04-06T13:21:09;15.10;68.30
9385;DHT22;4732;49.340;10.886;2023-04-06T13:26:05;15.70;71.40
9385;DHT22;4732;49.340;10.886;2023-04-06T13:28:32;15.90;67.80
9385;DHT22;4732;49.340;10.886;2023-04-06T13:30:59;15.30;66.80
9385;DHT22;4732;49.340;10.886;2023-04-06T13:33:25;15.40;65.70
9385;DHT22;4732;49.340;10.886;2023-04-06T13:35:51;15.50;69.50
9385;DHT22;4732;49.340;10.886;2023-04-06T13:38:17;15.80;64.00
9385;DHT22;4732;49.340;10.886;2023-04-06T13:40:42;16.00;66.30
9385;DHT22;4732;49.340;10.886;2023-04-06T13:43:08;15.80;67.00
9385;DHT22;4732;49.340;10.886;2023-04-06T13:48:09;16.10;71.70
9385;DHT22;4732;49.340;10.886;2023-04-06T13:50:34;16.00;64.20
9385;DHT22;4732;49.340;10.886;2023-04-06T13:53:00;15.90;68.90
9385;DHT22;4732;49.340;10.886;2023-04-06T13:55:25;15.90;64.50
9385;DHT22;4732;49.340;10.886;2023-04-06T13:57:51;15.90;60.20
9385;DHT22;4732;49.340;10.886;2023-04-06T14:00:17;15.80;60.10
9385;DHT22;4732;49.340;10.886;2023-04-06T14:02:43;16.00;60.90
9385;DHT22;4732;49.340;10.886;2023-04-06T14:05:09;16.20;63.30
9385;DHT22;4732;49.340;10.886;2023-04-06T14:07:35;15.70;59.90
9385;DHT22;4732;49.340;10.886;2023-04-06T14:10:00;14.90;59.70
9385;DHT22;4732;49.340;10.886;2023-04-06T14:12:26;14.50;63.80
9385;DHT22;4732;49.340;10.886;2023-04-06T14:14:52;14.10;63.50
9385;DHT22;4732;49.340;10.886;2023-04-06T14:17:17;13.80;60.00
9385;DHT22;4732;49.340;10.886;2023-04-06T14:19:43;13.60;62.00
9385;DHT22;4732;49.340;10.886;2023-04-06T14:22:08;13.30;65.40
9385;DHT22;4732;49.340;10.886;2023-04-06T14:24:34;13.00;65.30
9385;DHT22;4732;49.340;10.886;2023-04-06T14:27:01;12.80;68.30
9385;DHT22;4732;49.340;10.886;2023-04-06T14:29:28;13.10;67.00
9385;DHT22;4732;49.340;10.886;2023-04-06T14:31:54;13.00;67.30
9385;DHT22;4732;49.340;10.886;2023-04-06T14:34:27;12.70;66.70
9385;DHT22;4732;49.340;10.886;2023-04-06T14:36:53;12.90;68.00
9385;DHT22;4732;49.340;10.886;2023-04-06T14:39:19;13.00;69.20
9385;DHT22;4732;49.340;10.886;2023-04-06T14:41:44;13.10;64.20
9385;DHT22;4732;49.340;10.886;2023-04-06T14:44:10;13.10;65.80
9385;DHT22;4732;49.340;10.886;2023-04-06T14:46:37;13.00;70.30
9385;DHT22;4732;49.340;10.886;2023-04-06T14:49:03;12.80;66.20
9385;DHT22;4732;49.340;10.886;2023-04-06T14:51:29;12.80;67.20
9385;DHT22;4732;49.340;10.886;2023-04-06T14:53:55;13.30;71.80
9385;DHT22;4732;49.340;10.886;2023-04-06T14:56:24;13.70;70.20
9385;DHT22;4732;49.340;10.886;2023-04-06T14:58:50;13.60;69.20
9385;DHT22;4732;49.340;10.886;2023-04-06T15:01:20;13.30;66.60
9385;DHT22;4732;49.340;10.886;2023-04-06T15:03:48;13.00;66.70
9385;DHT22;4732;49.340;10.886;2023-04-06T15:06:14;12.80;66.60
9385;DHT22;4732;49.340;10.886;2023-04-06T15:08:44;13.10;66.20
9385;DHT22;4732;49.340;10.886;2023-04-06T15:11:10;13.40;68.00
9385;DHT22;4732;49.340;10.886;2023-04-06T15:13:37;13.70;69.20
9385;DHT22;4732;49.340;10.886;2023-04-06T15:16:03;13.90;70.20
9385;DHT22;4732;49.340;10.886;2023-04-06T15:18:28;14.40;68.30
9385;DHT22;4732;49.340;10.886;2023-04-06T15:20:54;14.80;67.50
9385;DHT22;4732;49.340;10.886;2023-04-06T15:23:20;15.00;63.50
9385;DHT22;4732;49.340;10.886;2023-04-06T15:25:46;15.20;63.50
9385;DHT22;4732;49.340;10.886;2023-04-06T15:28:11;14.70;64.10
9385;DHT22;4732;49.340;10.886;2023-04-06T15:30:37;14.90;64.90
9385;DHT22;4732;49.340;10.886;2023-04-06T15:33:04;15.10;64.50
9385;DHT22;4732;49.340;10.886;2023-04-06T15:35:30;15.20;64.20
9385;DHT22;4732;49.340;10.886;2023-04-06T15:37:56;15.50;65.00
9385;DHT22;4732;49.340;10.886;2023-04-06T15:40:23;15.70;63.30
9385;DHT22;4732;49.340;10.886;2023-04-06T15:42:48;15.60;64.30
9385;DHT22;4732;49.340;10.886;2023-04-06T15:45:14;15.70;64.00
9385;DHT22;4732;49.340;10.886;2023-04-06T15:47:40;15.50;67.90
9385;DHT22;4732;49.340;10.886;2023-04-06T15:50:07;15.60;67.20
9385;DHT22;4732;49.340;10.886;2023-04-06T15:52:33;15.70;65.80
9385;DHT22;4732;49.340;10.886;2023-04-06T15:54:59;15.80;63.00
9385;DHT22;4732;49.340;10.886;2023-04-06T15:57:24;15.70;63.10
9385;DHT22;4732;49.340;10.886;2023-04-06T15:59:50;15.80;65.80
9385;DHT22;4732;49.340;10.886;2023-04-06T16:02:16;15.90;67.40
9385;DHT22;4732;49.340;10.886;2023-04-06T16:04:42;16.00;63.20
9385;DHT22;4732;49.340;10.886;2023-04-06T16:07:07;15.90;61.90
9385;DHT22;4732;49.340;10.886;2023-04-06T16:09:33;15.80;64.00
9385;DHT22;4732;49.340;10.886;2023-04-06T16:11:58;15.80;66.20
9385;DHT22;4732;49.340;10.886;2023-04-06T16:14:24;16.00;67.80
9385;DHT22;4732;49.340;10.886;2023-04-06T16:16:49;15.50;61.40
9385;DHT22;4732;49.340;10.886;2023-04-06T16:19:15;15.70;62.00
9385;DHT22;4732;49.340;10.886;2023-04-06T16:21:41;15.60;63.40
9385;DHT22;4732;49.340;10.886;2023-04-06T16:24:07;15.40;62.10
9385;DHT22;4732;49.340;10.886;2023-04-06T16:26:33;15.40;62.00
9385;DHT22;4732;49.340;10.886;2023-04-06T16:28:59;15.30;66.40
9385;DHT22;4732;49.340;10.886;2023-04-06T16:31:25;15.10;65.00
9385;DHT22;4732;49.340;10.886;2023-04-06T16:33:52;14.80;62.50
9385;DHT22;4732;49.340;10.886;2023-04-06T16:36:26;14.20;65.40
9385;DHT22;4732;49.340;10.886;2023-04-06T16:38:52;13.80;65.50
9385;DHT22;4732;49.340;10.886;2023-04-06T16:41:18;13.40;65.80
9385;DHT22;4732;49.340;10.886;2023-04-06T16:43:44;13.10;65.20
9385;DHT22;4732;49.340;10.886;2023-04-06T16:46:10;12.80;65.70
9385;DHT22;4732;49.340;10.886;2023-04-06T16:48:36;12.60;67.30
9385;DHT22;4732;49.340;10.886;2023-04-06T16:51:06;12.40;68.40
9385;DHT22;4732;49.340;10.886;2023-04-06T16:53:32;12.10;71.00
9385;DHT22;4732;49.340;10.886;2023-04-06T16:55:58;12.00;71.20
9385;DHT22;4732;49.340;10.886;2023-04-06T16:58:23;11.80;71.90
9385;DHT22;4732;49.340;10.886;2023-04-06T17:00:49;11.70;72.10
9385;DHT22;4732;49.340;10.886;2023-04-06T17:03:15;11.60;70.80
9385;DHT22;4732;49.340;10.886;2023-04-06T17:05:40;11.50;71.80
9385;DHT22;4732;49.340;10.886;2023-04-06T17:08:06;11.30;70.50
9385;DHT22;4732;49.340;10.886;2023-04-06T17:10:31;11.10;73.90
9385;DHT22;4732;49.340;10.886;2023-04-06T17:12:57;11.00;75.70
9385;DHT22;4732;49.340;10.886;2023-04-06T17:15:22;10.80;79.60
9385;DHT22;4732;49.340;10.886;2023-04-06T17:17:52;10.70;78.00
9385;DHT22;4732;49.340;10.886;2023-04-06T17:20:18;10.50;80.30
9385;DHT22;4732;49.340;10.886;2023-04-06T17:22:43;10.30;87.90
9385;DHT22;4732;49.340;10.886;2023-04-06T17:25:14;10.00;89.10
9385;DHT22;4732;49.340;10.886;2023-04-06T17:27:40;9.90;88.10
9385;DHT22;4732;49.340;10.886;2023-04-06T17:30:08;9.60;91.00
9385;DHT22;4732;49.340;10.886;2023-04-06T17:32:34;9.20;91.00
9385;DHT22;4732;49.340;10.886;2023-04-06T17:35:00;9.00;90.90
9385;DHT22;4732;49.340;10.886;2023-04-06T17:37:25;8.90;91.20
9385;DHT22;4732;49.340;10.886;2023-04-06T17:39:52;8.70;90.50
9385;DHT22;4732;49.340;10.886;2023-04-06T17:42:18;8.60;91.80
9385;DHT22;4732;49.340;10.886;2023-04-06T17:44:43;8.40;92.20
9385;DHT22;4732;49.340;10.886;2023-04-06T17:47:11;8.20;93.10
9385;DHT22;4732;49.340;10.886;2023-04-06T17:49:37;8.00;93.70
9385;DHT22;4732;49.340;10.886;2023-04-06T17:52:02;7.80;93.90
9385;DHT22;4732;49.340;10.886;2023-04-06T17:54:28;7.70;94.20
9385;DHT22;4732;49.340;10.886;2023-04-06T17:56:53;7.60;95.10
9385;DHT22;4732;49.340;10.886;2023-04-06T17:59:19;7.40;95.60
9385;DHT22;4732;49.340;10.886;2023-04-06T18:01:44;7.30;97.90
9385;DHT22;4732;49.340;10.886;2023-04-06T18:04:10;7.30;97.80
9385;DHT22;4732;49.340;10.886;2023-04-06T18:06:35;7.10;98.40
9385;DHT22;4732;49.340;10.886;2023-04-06T18:09:02;7.00;98.60
9385;DHT22;4732;49.340;10.886;2023-04-06T18:11:28;6.90;99.10
9385;DHT22;4732;49.340;10.886;2023-04-06T18:13:55;6.60;99.90
9385;DHT22;4732;49.340;10.886;2023-04-06T18:16:21;6.40;99.90
9385;DHT22;4732;49.340;10.886;2023-04-06T18:18:47;6.20;99.90
9385;DHT22;4732;49.340;10.886;2023-04-06T18:21:13;6.10;99.90
9385;DHT22;4732;49.340;10.886;2023-04-06T18:23:38;6.00;99.90
9385;DHT22;4732;49.340;10.886;2023-04-06T18:26:05;6.00;99.90
9385;DHT22;4732;49.340;10.886;2023-04-06T18:28:31;5.90;99.90
9385;DHT22;4732;49.340;10.886;2023-04-06T18:30:57;5.90;99.90
9385;DHT22;4732;49.340;10.886;2023-04-06T18:33:23;5.80;99.90
9385;DHT22;4732;49.340;10.886;2023-04-06T18:35:48;5.60;99.90
9385;DHT22;4732;49.340;10.886;2023-04-06T18:38:14;5.50;99.90
9385;DHT22;4732;49.340;10.886;2023-04-06T18:40:40;5.50;99.90
9385;DHT22;4732;49.340;10.886;2023-04-06T18:43:06;5.50;99.90
9385;DHT22;4732;49.340;10.886;2023-04-06T18:45:33;5.30;99.90
9385;DHT22;4732;49.340;10.886;2023-04-06T18:47:59;5.10;99.90
9385;DHT22;4732;49.340;10.886;2023-04-06T18:50:25;5.00;99.90
9385;DHT22;4732;49.340;10.886;2023-04-06T18:52:50;4.80;99.90
9385;DHT22;4732;49.340;10.886;2023-04-06T18:55:16;4.70;99.90
9385;DHT22;4732;49.340;10.886;2023-04-06T18:57:44;4.60;99.90
9385;DHT22;4732;49.340;10.886;2023-04-06T19:00:10;4.60;99.90
9385;DHT22;4732;49.340;10.886;2023-04-06T19:02:36;4.60;99.90
9385;DHT22;4732;49.340;10.886;2023-04-06T19:05:01;4.60;99.90
9385;DHT22;4732;49.340;10.886;2023-04-06T19:07:27;4.60;99.90
9385;DHT22;4732;49.340;10.886;2023-04-06T19:09:52;4.50;99.90
9385;DHT22;4732;49.340;10.886;2023-04-06T19:12:18;4.50;99.90
9385;DHT22;4732;49.340;10.886;2023-04-06T19:14:43;4.40;99.90
9385;DHT22;4732;49.340;10.886;2023-04-06T19:17:15;4.20;99.90
9385;DHT22;4732;49.340;10.886;2023-04-06T19:19:40;4.20;99.90
9385;DHT22;4732;49.340;10.886;2023-04-06T19:22:06;4.00;99.90
9385;DHT22;4732;49.340;10.886;2023-04-06T19:24:31;3.90;99.90
9385;DHT22;4732;49.340;10.886;2023-04-06T19:26:57;3.90;99.90
9385;DHT22;4732;49.340;10.886;2023-04-06T19:29:23;3.80;99.90
9385;DHT22;4732;49.340;10.886;2023-04-06T19:31:49;3.70;99.90
9385;DHT22;4732;49.340;10.886;2023-04-06T19:34:15;3.70;99.90
9385;DHT22;4732;49.340;10.886;2023-04-06T19:36:43;3.50;99.90
9385;DHT22;4732;49.340;10.886;2023-04-06T19:39:09;3.50;99.90
9385;DHT22;4732;49.340;10.886;2023-04-06T19:41:35;3.40;99.90
9385;DHT22;4732;49.340;10.886;2023-04-06T19:44:00;3.50;99.90
9385;DHT22;4732;49.340;10.886;2023-04-06T19:46:26;3.40;99.90
9385;DHT22;4732;49.340;10.886;2023-04-06T19:48:51;3.30;99.90
9385;DHT22;4732;49.340;10.886;2023-04-06T19:51:17;3.30;99.90
9385;DHT22;4732;49.340;10.886;2023-04-06T19:53:43;3.30;99.90
9385;DHT22;4732;49.340;10.886;2023-04-06T19:56:08;3.30;99.90
9385;DHT22;4732;49.340;10.886;2023-04-06T19:58:35;3.30;99.90
9385;DHT22;4732;49.340;10.886;2023-04-06T20:01:02;3.20;99.90
9385;DHT22;4732;49.340;10.886;2023-04-06T20:03:28;3.10;99.90
9385;DHT22;4732;49.340;10.886;2023-04-06T20:05:54;3.10;99.90
9385;DHT22;4732;49.340;10.886;2023-04-06T20:08:20;3.00;99.90
9385;DHT22;4732;49.340;10.886;2023-04-06T20:10:46;2.90;99.90
9385;DHT22;4732;49.340;10.886;2023-04-06T20:13:11;2.80;99.90
9385;DHT22;4732;49.340;10.886;2023-04-06T20:15:37;2.80;99.90
9385;DHT22;4732;49.340;10.886;2023-04-06T20:18:02;2.80;99.90
9385;DHT22;4732;49.340;10.886;2023-04-06T20:20:28;2.60;99.90
9385;DHT22;4732;49.340;10.886;2023-04-06T20:22:54;2.70;99.90
9385;DHT22;4732;49.340;10.886;2023-04-06T20:25:19;2.70;99.90
9385;DHT22;4732;49.340;10.886;2023-04-06T20:27:46;2.70;99.90
9385;DHT22;4732;49.340;10.886;2023-04-06T20:30:12;2.70;99.90
9385;DHT22;4732;49.340;10.886;2023-04-06T20:32:39;2.70;99.90
9385;DHT22;4732;49.340;10.886;2023-04-06T20:35:05;2.60;99.90
9385;DHT22;4732;49.340;10.886;2023-04-06T20:37:30;2.50;99.90
9385;DHT22;4732;49.340;10.886;2023-04-06T20:39:56;2.40;99.90
9385;DHT22;4732;49.340;10.886;2023-04-06T20:42:21;2.40;99.90
9385;DHT22;4732;49.340;10.886;2023-04-06T20:44:48;2.30;99.90
9385;DHT22;4732;49.340;10.886;2023-04-06T20:47:15;2.20;99.90
9385;DHT22;4732;49.340;10.886;2023-04-06T20:49:40;2.10;99.90
9385;DHT22;4732;49.340;10.886;2023-04-06T20:52:06;2.00;99.90
9385;DHT22;4732;49.340;10.886;2023-04-06T20:54:31;2.00;99.90
9385;DHT22;4732;49.340;10.886;2023-04-06T20:56:57;2.00;99.90
9385;DHT22;4732;49.340;10.886;2023-04-06T20:59:25;2.00;99.90
9385;DHT22;4732;49.340;10.886;2023-04-06T21:01:51;2.00;99.90
9385;DHT22;4732;49.340;10.886;2023-04-06T21:04:17;2.00;99.90
9385;DHT22;4732;49.340;10.886;2023-04-06T21:06:46;2.00;99.90
9385;DHT22;4732;49.340;10.886;2023-04-06T21:09:11;2.10;99.90
9385;DHT22;4732;49.340;10.886;2023-04-06T21:11:37;2.00;99.90
9385;DHT22;4732;49.340;10.886;2023-04-06T21:14:02;2.00;99.90
9385;DHT22;4732;49.340;10.886;2023-04-06T21:16:28;1.90;99.90
9385;DHT22;4732;49.340;10.886;2023-04-06T21:18:53;2.00;99.90
9385;DHT22;4732;49.340;10.886;2023-04-06T21:21:19;2.00;99.90
9385;DHT22;4732;49.340;10.886;2023-04-06T21:23:44;1.90;99.90
9385;DHT22;4732;49.340;10.886;2023-04-06T21:26:13;2.00;99.90
9385;DHT22;4732;49.340;10.886;2023-04-06T21:28:38;2.00;99.90
9385;DHT22;4732;49.340;10.886;2023-04-06T21:31:07;1.90;99.90
9385;DHT22;4732;49.340;10.886;2023-04-06T21:33:33;1.90;99.90
9385;DHT22;4732;49.340;10.886;2023-04-06T21:36:07;1.90;99.90
9385;DHT22;4732;49.340;10.886;2023-04-06T21:38:33;1.90;99.90
9385;DHT22;4732;49.340;10.886;2023-04-06T21:41:02;1.90;99.90
9385;DHT22;4732;49.340;10.886;2023-04-06T21:43:27;1.80;99.90
9385;DHT22;4732;49.340;10.886;2023-04-06T21:45:53;1.80;99.90
9385;DHT22;4732;49.340;10.886;2023-04-06T21:48:18;1.70;99.90
9385;DHT22;4732;49.340;10.886;2023-04-06T21:50:44;1.70;99.90
9385;DHT22;4732;49.340;10.886;2023-04-06T21:53:10;1.60;99.90
9385;DHT22;4732;49.340;10.886;2023-04-06T21:55:40;1.60;99.90
9385;DHT22;4732;49.340;10.886;2023-04-06T21:58:06;1.60;99.90
9385;DHT22;4732;49.340;10.886;2023-04-06T22:00:31;1.60;99.90
9385;DHT22;4732;49.340;10.886;2023-04-06T22:02:57;1.60;99.90
9385;DHT22;4732;49.340;10.886;2023-04-06T22:05:22;1.70;99.90
9385;DHT22;4732;49.340;10.886;2023-04-06T22:07:48;1.70;99.90
9385;DHT22;4732;49.340;10.886;2023-04-06T22:10:13;1.60;99.90
9385;DHT22;4732;49.340;10.886;2023-04-06T22:12:39;1.60;99.90
